Scroll down
FLIGHT INFORMATION
Federal Express (FedEx)

FDX1820

At Arrival Gate

CYEG
 KDEN
DATE: 2022-07-23
GATE:  -
GATE DEPARTURE: 20:13
TAKEOFF: 20:28
DATE: 2022-07-23
GATE: 10
LANDING: 22:36
GATE ARRIVAL: 22:58
FLIGHT DATA
Crew: 
Speed: 
493 kts
Altitude: 
35,011 ft
Stage Length: 
885.5 nm
Block Time: 
2.7 hrs
Flight Time: 
2.2 hrs
Fuel Used: 
39,489 lb
Cleared Route: CYEG KEKBI JEVON OMROD TOVIS YEA BIL TOFUU GNOLA HIPEE FOLSM BBOCO FLATI ELLDO TOTTT YESSS BAACK BABAA HIMOM CRUUP RW35L
TRACK DATA
50,000 ft 1,000 kts
AIRCRAFT INFO AND CUMULATIVE STATS
Aircraft Type: 
B77LF
Registration: 
SELCAL: 
CMDL
MSN/LN: 
38969 / 947
Total Flights: 
5
Total Block Time: 
20.5 hrs
Total Flight Time: 
19 hrs
Total Fuel Used: 
618,564 lb
DATALINK LOG | Newest first | Current as of: 2022-08-16 06:57:01
LABEL SEQUENCE CONTENT Dn/Up
QD012422:58 17.2▼ Dn
QC390322:36▼ Dn
GA5229CARGO STAND 10▲ Up
GR5219KDEN 22:36 MAAS YP/UM WCHR/S/C HI-VAL NO▼ Dn
2U3653KDEN 232122Z 04009KT 10SM VCTS SCT110CB BKN150 BKN220 32/05 A3008 RMK AO2 LTG DSNT W OCNL LTGCG VC W TS VC W MOV E T03220050▲ Up
2S3807KDEN▼ Dn
2U0518KDEN 232053Z 06010G20KT 10SM SCT080 SCT110 BKN150 BKN220 33/04 A3006 RMK AO2 PK WND 01027/2002 SLP082 CB DSNT SE AND W MOV E T03▲ Up
2S0738KDEN▼ Dn
QB310420:28▼ Dn
QA154920:13 57▼ Dn
A30035CLEARED TO KDEN VIA OMROD TOVIS YEA BIL TOFUU FLATI3. SQUAWK 4201.▲ Up
Q05933[LINK ACK]▲ Up
Q05933[LINK TEST]▼ Dn


AIRCRAFT HISTORY
FLIGHT DATE FLIGHT NO. ORIGIN DESTINATION CLEARED ROUTE BLOCK TIME FLIGHT TIME FUEL USED PILOT
2022-07-25FDX9842KDEN KMEM KDEN RZC MARBI IGLOO SAUCC BRBBQ JAMLA BUDEE RW092 hrs1.8 hrs283,333 lbAllan Burek
2022-07-23FDX1820CYEG KDEN CYEG KEKBI JEVON OMROD TOVIS YEA BIL TOFUU GNOLA HIPEE FOLSM BBOCO FLATI ELLDO TOTTT YESSS BAACK BABAA HIMOM CRUUP RW35L2.7 hrs2.2 hrs39,489 lbPete L.
2022-07-20FDX820PAFA CYEG PAFA SKIMO HRDNG RDFLG ORT CFDJJ BIBEM YXY YQH YYE MERCH YPE AROUK TETAG SETBU PESGO VIPSO NOTIG KEVRA OMENA RW303.1 hrs2.8 hrs56,161 lbPete L.
2022-07-19FDX1712KSEA PAFA KSEA DODVE WUREL ATOME BREMM BANGR ARRIE DUGGS HANRY CFSTF ANN GESTI DOOZI LVD HOODS AYZOL RDFLG HRDNG RNDRR ROAAD RW20R3.5 hrs3.2 hrs53,816 lbPete L.
2021-08-06FDX806RJBB KSEA RJBB TONDA KEC KILAP ISEBI MOE ONASU KAGIS AVBET LEPKI 41E60 42E70 44E80 46N70 48N60 48N50 48N40 48N30 TOU KSEA9.3 hrs9.1 hrs185,765 lbCharles Harris